Time;durP1;ratioP1;P1;durP2;ratioP2;P2;SDS_P1;SDS_P2;PMS_P1;PMS_P2;Temp;Humidity;BMP_temperature;BMP_pressure;BME280_temperature;BME280_humidity;BME280_pressure;Samples;Min_cycle;Max_cycle;Signal;HPM_P1;HPM_P2
2023/07/30 00:02:57;;;;;;;;;;;;;;;24.82;60.64;100181.38;2305946;76;51422;-76
2023/07/30 00:05:59;;;;;;;;;;;;;;;24.80;60.44;100174.84;2305946;75;51563;-76
2023/07/30 00:09:00;;;;;;;;;;;;;;;24.82;60.39;100175.97;2305489;76;51761;-76
2023/07/30 00:12:02;;;;;;;;;;;;;;;24.84;60.30;100176.02;2306044;76;51301;-77
2023/07/30 00:15:04;;;;;;;;;;;;;;;24.82;60.44;100168.66;2305864;76;51797;-76
2023/07/30 00:18:05;;;;;;;;;;;;;;;24.79;60.39;100171.84;2334963;75;51458;-76
2023/07/30 00:21:07;;;;;;;;;;;;;;;24.81;60.36;100167.00;2335194;76;51419;-76
2023/07/30 00:24:08;;;;;;;;;;;;;;;24.78;60.31;100166.94;2305614;76;51378;-77
2023/07/30 00:27:10;;;;;;;;;;;;;;;24.80;60.24;100164.02;2305279;76;50919;-76
2023/07/30 00:30:12;;;;;;;;;;;;;;;24.81;60.06;100160.77;2307743;76;50294;-76
2023/07/30 00:33:13;;;;;;;;;;;;;;;24.76;60.44;100159.61;2341769;76;50272;-77
2023/07/30 00:36:15;;;;;;;;;;;;;;;24.76;60.42;100160.97;2344961;74;50707;-77
2023/07/30 00:39:16;;;;;;;;;;;;;;;24.78;60.17;100160.17;2299353;76;52960;-77
2023/07/30 00:42:18;;;;;;;;;;;;;;;24.75;60.33;100155.78;2345081;76;50617;-77
2023/07/30 00:45:19;;;;;;;;;;;;;;;24.75;60.22;100152.53;2325385;74;51525;-76
2023/07/30 00:48:21;;;;;;;;;;;;;;;24.80;60.22;100151.84;2345014;76;52117;-76
2023/07/30 00:51:23;;;;;;;;;;;;;;;24.77;60.26;100147.72;2324092;76;51108;-77
2023/07/30 00:54:24;;;;;;;;;;;;;;;24.79;59.98;100139.38;2342651;76;50254;-76
2023/07/30 00:57:26;;;;;;;;;;;;;;;24.81;60.22;100127.76;2321063;75;50701;-76
2023/07/30 01:00:29;;;;;;;;;;;;;;;24.75;60.26;100120.06;2310986;76;50697;-76
2023/07/30 01:03:31;;;;;;;;;;;;;;;24.79;60.10;100128.55;2288881;76;52692;-77
2023/07/30 01:06:32;;;;;;;;;;;;;;;24.79;60.20;100131.26;2321263;75;51480;-76
2023/07/30 01:09:34;;;;;;;;;;;;;;;24.80;60.13;100135.59;2321497;76;51391;-76
2023/07/30 01:12:35;;;;;;;;;;;;;;;24.77;60.05;100143.66;2321366;76;50433;-76
2023/07/30 01:15:37;;;;;;;;;;;;;;;24.81;59.82;100142.64;2309269;75;51122;-76
2023/07/30 01:18:39;;;;;;;;;;;;;;;24.82;59.88;100144.31;2321290;76;51511;-76
2023/07/30 01:21:40;;;;;;;;;;;;;;;24.82;59.80;100147.02;2321577;76;50313;-77
2023/07/30 01:24:42;;;;;;;;;;;;;;;24.82;59.61;100148.37;2309517;76;49885;-77
2023/07/30 01:27:48;;;;;;;;;;;;;;;24.84;59.62;100161.14;2309049;76;51136;-77
2023/07/30 01:30:49;;;;;;;;;;;;;;;24.86;59.61;100163.59;2319223;76;50818;-78
2023/07/30 01:33:52;;;;;;;;;;;;;;;24.82;59.63;100157.84;2307706;76;50620;-78
2023/07/30 01:36:53;;;;;;;;;;;;;;;24.83;59.53;100161.36;2319398;75;50706;-77
2023/07/30 01:39:55;;;;;;;;;;;;;;;24.84;59.36;100167.05;2308046;76;52308;-77
2023/07/30 01:42:57;;;;;;;;;;;;;;;24.82;59.54;100164.60;2319641;76;50181;-77
2023/07/30 01:45:58;;;;;;;;;;;;;;;24.82;59.30;100176.78;2319438;75;50234;-77
2023/07/30 01:49:00;;;;;;;;;;;;;;;24.83;59.28;100175.71;2294862;76;50266;-77
2023/07/30 01:52:01;;;;;;;;;;;;;;;24.85;59.15;100182.25;2308064;76;51702;-77
2023/07/30 01:55:03;;;;;;;;;;;;;;;24.84;59.08;100181.44;2294279;76;51420;-77
2023/07/30 01:58:04;;;;;;;;;;;;;;;24.85;59.13;100182.25;2281982;77;50660;-77
2023/07/30 02:01:06;;;;;;;;;;;;;;;24.83;59.06;100177.59;2272627;77;50703;-77
2023/07/30 02:04:08;;;;;;;;;;;;;;;24.84;59.09;100177.88;2278348;77;51404;-77
2023/07/30 02:07:09;;;;;;;;;;;;;;;24.83;59.10;100178.41;2281873;77;50673;-77
2023/07/30 02:10:11;;;;;;;;;;;;;;;24.81;59.02;100184.59;2313589;77;52477;-77
2023/07/30 02:13:13;;;;;;;;;;;;;;;24.82;59.01;100185.44;2282160;77;50230;-77
2023/07/30 02:16:15;;;;;;;;;;;;;;;24.82;59.01;100180.84;2306306;76;50814;-76
2023/07/30 02:19:16;;;;;;;;;;;;;;;24.80;59.31;100174.84;2282334;77;51403;-76
2023/07/30 02:22:18;;;;;;;;;;;;;;;24.76;59.09;100172.30;2282275;77;51613;-77
2023/07/30 02:25:20;;;;;;;;;;;;;;;24.78;59.10;100179.66;2313517;75;50190;-76
2023/07/30 02:28:21;;;;;;;;;;;;;;;24.75;59.11;100185.00;2306066;77;52323;-77
2023/07/30 02:31:23;;;;;;;;;;;;;;;24.76;59.06;100191.23;2280474;77;50243;-77
2023/07/30 02:34:24;;;;;;;;;;;;;;;24.77;58.95;100192.36;2280344;77;50208;-77
2023/07/30 02:37:26;;;;;;;;;;;;;;;24.79;59.04;100189.44;2281714;77;50153;-76
2023/07/30 02:40:28;;;;;;;;;;;;;;;24.79;59.01;100188.08;2306301;77;52335;-76
2023/07/30 02:43:29;;;;;;;;;;;;;;;24.78;59.03;100189.13;2313402;77;52237;-76
2023/07/30 02:46:31;;;;;;;;;;;;;;;24.81;59.06;100187.30;2313050;75;50407;-76
2023/07/30 02:49:32;;;;;;;;;;;;;;;24.78;58.94;100196.70;2313500;77;50281;-77
2023/07/30 02:52:34;;;;;;;;;;;;;;;24.75;59.06;100193.66;2306475;77;50821;-77
2023/07/30 02:55:35;;;;;;;;;;;;;;;24.75;58.86;100198.53;2282164;75;50665;-77
2023/07/30 02:58:37;;;;;;;;;;;;;;;24.76;58.69;100207.47;2281874;77;50308;-76
2023/07/30 03:01:39;;;;;;;;;;;;;;;24.76;58.75;100198.00;2273449;76;50754;-77
2023/07/30 03:04:40;;;;;;;;;;;;;;;24.76;58.69;100195.30;2238874;77;51656;-76
2023/07/30 03:07:42;;;;;;;;;;;;;;;24.75;58.66;100196.36;2292430;76;50348;-77
2023/07/30 03:10:44;;;;;;;;;;;;;;;24.76;58.67;100195.30;2292677;77;50398;-77
2023/07/30 03:13:45;;;;;;;;;;;;;;;24.74;58.60;100202.84;2262012;76;52300;-77
2023/07/30 03:16:47;;;;;;;;;;;;;;;24.75;58.59;100197.72;2292313;76;50185;-77
2023/07/30 03:19:49;;;;;;;;;;;;;;;24.74;58.59;100195.55;2261948;77;53732;-77
2023/07/30 03:22:50;;;;;;;;;;;;;;;24.74;58.58;100192.02;2305650;75;52191;-76
2023/07/30 03:25:52;;;;;;;;;;;;;;;24.73;58.51;100202.53;2262260;76;50649;-76
2023/07/30 03:28:54;;;;;;;;;;;;;;;24.74;58.81;100202.84;2236933;77;49503;-76
2023/07/30 03:31:55;;;;;;;;;;;;;;;24.74;58.60;100212.31;2292494;76;50255;-76
2023/07/30 03:34:57;;;;;;;;;;;;;;;24.74;58.55;100209.61;2292485;77;50639;-76
2023/07/30 03:37:58;;;;;;;;;;;;;;;24.72;58.61;100219.84;2292397;76;50682;-76
2023/07/30 03:41:00;;;;;;;;;;;;;;;24.73;58.55;100217.41;2292578;76;51358;-76
2023/07/30 03:44:01;;;;;;;;;;;;;;;24.73;58.42;100215.53;2292573;77;51264;-76
2023/07/30 03:47:03;;;;;;;;;;;;;;;24.72;58.48;100218.48;2292307;76;51406;-76
2023/07/30 03:50:05;;;;;;;;;;;;;;;24.73;58.43;100226.34;2262963;77;51546;-76
2023/07/30 03:53:07;;;;;;;;;;;;;;;24.74;58.39;100220.44;2274013;77;52355;-76
2023/07/30 03:56:08;;;;;;;;;;;;;;;24.73;58.34;100220.12;2273761;75;51529;-76
2023/07/30 03:59:10;;;;;;;;;;;;;;;24.74;58.42;100225.31;2337919;76;50177;-75
2023/07/30 04:02:15;;;;;;;;;;;;;;;24.73;58.23;100226.88;2337965;76;50145;-75
2023/07/30 04:05:15;;;;;;;;;;;;;;;24.72;58.34;100228.77;2337803;75;22341;-76
2023/07/30 04:08:17;;;;;;;;;;;;;;;24.72;58.35;100229.30;2308354;76;50686;-75
2023/07/30 04:11:18;;;;;;;;;;;;;;;24.71;58.24;100225.78;2337989;76;51489;-76
2023/07/30 04:14:20;;;;;;;;;;;;;;;24.73;58.18;100229.59;2308690;76;51419;-76
2023/07/30 04:17:22;;;;;;;;;;;;;;;24.73;58.17;100235.00;2282964;76;51126;-76
2023/07/30 04:20:23;;;;;;;;;;;;;;;24.73;58.23;100236.35;2338996;76;51388;-76
2023/07/30 04:23:25;;;;;;;;;;;;;;;24.72;58.24;100241.48;2342397;75;50259;-75
2023/07/30 04:26:26;;;;;;;;;;;;;;;24.72;58.13;100240.13;2344209;74;50312;-76
2023/07/30 04:29:28;;;;;;;;;;;;;;;24.73;58.09;100240.41;2298807;76;49816;-76
2023/07/30 04:32:29;;;;;;;;;;;;;;;24.74;58.01;100235.31;2324067;76;50713;-76
2023/07/30 04:35:31;;;;;;;;;;;;;;;24.74;57.98;100235.31;2344536;76;51504;-76
2023/07/30 04:38:33;;;;;;;;;;;;;;;24.73;57.90;100232.30;2344298;76;51519;-76
2023/07/30 04:41:34;;;;;;;;;;;;;;;24.74;57.91;100242.08;2323289;76;52503;-77
2023/07/30 04:44:36;;;;;;;;;;;;;;;24.70;58.08;100243.06;2344615;75;52148;-76
2023/07/30 04:47:37;;;;;;;;;;;;;;;24.69;58.20;100246.02;2349849;75;51389;-76
2023/07/30 04:50:41;;;;;;;;;;;;;;;24.72;58.09;100245.54;2350264;75;51461;-76
2023/07/30 04:53:42;;;;;;;;;;;;;;;24.74;58.01;100250.20;2334378;76;22262;-77
2023/07/30 04:56:44;;;;;;;;;;;;;;;24.74;58.04;100248.84;2344988;74;50257;-77
2023/07/30 04:59:45;;;;;;;;;;;;;;;24.73;57.90;100246.64;2333081;76;51508;-77
2023/07/30 05:02:47;;;;;;;;;;;;;;;24.74;57.91;100256.96;2304844;77;50270;-78
2023/07/30 05:05:49;;;;;;;;;;;;;;;24.75;57.98;100247.77;2258310;76;51208;-76
2023/07/30 05:08:50;;;;;;;;;;;;;;;24.73;57.92;100248.53;2303270;77;50742;-76
2023/07/30 05:11:52;;;;;;;;;;;;;;;24.76;57.81;100244.00;2282811;77;52091;-77
2023/07/30 05:14:53;;;;;;;;;;;;;;;24.73;58.06;100243.94;2283431;77;50157;-74
2023/07/30 05:17:55;;;;;;;;;;;;;;;24.73;57.99;100242.58;2257984;77;49877;-74
2023/07/30 05:20:56;;;;;;;;;;;;;;;24.74;58.15;100246.14;2304953;76;51551;-75
2023/07/30 05:23:58;;;;;;;;;;;;;;;24.78;57.97;100248.66;2301244;76;50656;-76
2023/07/30 05:27:00;;;;;;;;;;;;;;;24.83;57.66;100248.77;2282210;77;51450;-76
2023/07/30 05:30:01;;;;;;;;;;;;;;;24.85;57.40;100252.61;2283853;77;52290;-74
2023/07/30 05:33:03;;;;;;;;;;;;;;;24.87;57.29;100253.20;2322599;76;50233;-76
2023/07/30 05:36:06;;;;;;;;;;;;;;;24.90;57.10;100249.49;2323656;74;51509;-75
2023/07/30 05:39:07;;;;;;;;;;;;;;;24.95;56.91;100244.20;2324937;76;50803;-76
2023/07/30 05:42:09;;;;;;;;;;;;;;;24.97;56.78;100250.20;2324913;76;50113;-76
2023/07/30 05:45:11;;;;;;;;;;;;;;;25.01;56.62;100251.08;2324858;74;50724;-77
2023/07/30 05:48:12;;;;;;;;;;;;;;;25.02;56.43;100246.77;2344726;76;52400;-76
2023/07/30 05:51:14;;;;;;;;;;;;;;;25.07;56.32;100247.42;2343901;74;51430;-77
2023/07/30 05:54:16;;;;;;;;;;;;;;;25.13;56.16;100257.33;2285069;75;51684;-77
2023/07/30 05:57:17;;;;;;;;;;;;;;;25.26;55.64;100256.28;2291528;76;51432;-77
2023/07/30 06:00:19;;;;;;;;;;;;;;;25.31;54.70;100245.56;2335196;76;51435;-77
2023/07/30 06:03:20;;;;;;;;;;;;;;;25.35;53.90;100246.72;2309457;76;51477;-76
2023/07/30 06:06:27;;;;;;;;;;;;;;;25.34;53.41;100243.20;2309319;76;51506;-77
2023/07/30 06:09:25;;;;;;;;;;;;;;;25.36;53.17;100246.49;2309448;76;22203;-77
2023/07/30 06:12:27;;;;;;;;;;;;;;;25.42;52.48;100254.19;2321481;75;50257;-75
2023/07/30 06:15:28;;;;;;;;;;;;;;;25.34;52.61;100248.61;2309289;75;50642;-76
2023/07/30 06:18:30;;;;;;;;;;;;;;;25.24;52.63;100246.22;2273905;76;50924;-77
2023/07/30 06:21:32;;;;;;;;;;;;;;;25.20;52.39;100247.20;2303790;76;49937;-76
2023/07/30 06:24:33;;;;;;;;;;;;;;;25.19;52.27;100260.45;2321462;76;50739;-76
2023/07/30 06:27:35;;;;;;;;;;;;;;;25.10;52.26;100249.65;2307678;76;50075;-76
2023/07/30 06:30:39;;;;;;;;;;;;;;;24.98;52.29;100251.84;2290693;76;51233;-76
2023/07/30 06:33:40;;;;;;;;;;;;;;;24.87;52.46;100261.33;2317110;76;22444;-74
2023/07/30 06:36:41;;;;;;;;;;;;;;;24.71;52.48;100258.76;2315034;76;51417;-75
2023/07/30 06:39:43;;;;;;;;;;;;;;;24.64;52.64;100255.36;2340120;76;50363;-75
2023/07/30 06:42:44;;;;;;;;;;;;;;;24.61;52.82;100255.30;2317636;76;50816;-76
2023/07/30 06:45:46;;;;;;;;;;;;;;;24.66;52.77;100259.98;2340117;74;51451;-76
2023/07/30 06:48:48;;;;;;;;;;;;;;;24.65;52.84;100260.52;2316397;76;50059;-75
2023/07/30 06:51:49;;;;;;;;;;;;;;;24.64;52.99;100267.00;2328470;76;50320;-76
2023/07/30 06:54:51;;;;;;;;;;;;;;;24.64;53.10;100263.47;2272752;76;52113;-76
2023/07/30 06:57:52;;;;;;;;;;;;;;;24.63;53.20;100261.81;2298758;76;51851;-76
2023/07/30 07:00:54;;;;;;;;;;;;;;;24.62;53.21;100262.34;2330953;76;51527;-76
2023/07/30 07:03:55;;;;;;;;;;;;;;;24.63;53.24;100259.10;2331032;76;50629;-76
2023/07/30 07:06:57;;;;;;;;;;;;;;;24.67;53.24;100252.18;2271761;76;52378;-76
2023/07/30 07:09:59;;;;;;;;;;;;;;;24.72;53.31;100257.72;2297131;76;51414;-76
2023/07/30 07:13:00;;;;;;;;;;;;;;;24.80;53.35;100256.02;2331176;76;51363;-76
2023/07/30 07:16:03;;;;;;;;;;;;;;;24.80;53.62;100270.08;2331121;75;50697;-76
2023/07/30 07:19:05;;;;;;;;;;;;;;;24.76;53.76;100264.30;2297644;76;50750;-76
2023/07/30 07:22:06;;;;;;;;;;;;;;;24.80;53.75;100259.26;2298165;76;50315;-76
2023/07/30 07:25:08;;;;;;;;;;;;;;;24.83;53.85;100257.42;2301222;76;50723;-76
2023/07/30 07:28:10;;;;;;;;;;;;;;;24.86;53.84;100255.06;2301620;76;50602;-76
2023/07/30 07:31:12;;;;;;;;;;;;;;;24.91;53.83;100247.60;2273936;76;51117;-76
2023/07/30 07:34:13;;;;;;;;;;;;;;;24.93;53.82;100246.30;2331237;76;49973;-76
2023/07/30 07:37:18;;;;;;;;;;;;;;;24.97;53.77;100244.79;2331039;75;51426;-76
2023/07/30 07:40:20;;;;;;;;;;;;;;;25.02;53.74;100250.83;2330954;76;51405;-76
2023/07/30 07:43:21;;;;;;;;;;;;;;;25.05;53.67;100252.23;2271821;76;50189;-76
2023/07/30 07:46:23;;;;;;;;;;;;;;;25.04;53.72;100254.13;2330750;75;50571;-76
2023/07/30 07:49:25;;;;;;;;;;;;;;;25.06;53.60;100254.72;2297039;76;52206;-76
2023/07/30 07:52:26;;;;;;;;;;;;;;;25.06;53.63;100252.02;2332677;76;50703;-76
2023/07/30 07:55:28;;;;;;;;;;;;;;;25.04;53.64;100249.25;2273676;75;52486;-76
2023/07/30 07:58:29;;;;;;;;;;;;;;;25.04;53.64;100243.84;2298916;76;50641;-76
2023/07/30 08:01:31;;;;;;;;;;;;;;;25.05;53.64;100245.47;2299139;76;50612;-76
2023/07/30 08:04:33;;;;;;;;;;;;;;;25.06;53.66;100244.44;2299079;76;51515;-76
2023/07/30 08:07:34;;;;;;;;;;;;;;;25.11;53.61;100256.73;2298553;76;52327;-76
2023/07/30 08:10:37;;;;;;;;;;;;;;;25.14;53.54;100254.36;2299023;76;51409;-76
2023/07/30 08:13:39;;;;;;;;;;;;;;;25.14;53.51;100257.06;2332986;76;50918;-75
2023/07/30 08:16:40;;;;;;;;;;;;;;;25.16;53.42;100257.69;2298916;76;50245;-76
2023/07/30 08:19:42;;;;;;;;;;;;;;;25.12;53.59;100251.59;2333249;76;50425;-76
2023/07/30 08:22:44;;;;;;;;;;;;;;;25.11;53.53;100258.91;2299290;76;50302;-75
2023/07/30 08:25:45;;;;;;;;;;;;;;;25.12;53.52;100257.02;2333324;75;50738;-75
2023/07/30 08:28:47;;;;;;;;;;;;;;;25.06;53.61;100262.03;2333276;76;51420;-76
2023/07/30 08:31:48;;;;;;;;;;;;;;;25.08;53.60;100254.50;2299271;76;52347;-76
2023/07/30 08:34:50;;;;;;;;;;;;;;;25.07;53.66;100260.95;2299172;76;51353;-76
2023/07/30 08:37:52;;;;;;;;;;;;;;;25.04;53.67;100259.55;2298881;76;51409;-75
2023/07/30 08:40:53;;;;;;;;;;;;;;;25.08;53.62;100257.20;2333275;76;50232;-75
2023/07/30 08:43:55;;;;;;;;;;;;;;;25.11;53.57;100256.19;2299039;76;51155;-75
2023/07/30 08:46:56;;;;;;;;;;;;;;;25.13;53.53;100260.03;2333115;75;51410;-76
2023/07/30 08:49:58;;;;;;;;;;;;;;;25.10;53.60;100255.06;2333343;76;51466;-76
2023/07/30 08:53:00;;;;;;;;;;;;;;;25.12;53.60;100255.66;2313851;76;51404;-76
2023/07/30 08:56:02;;;;;;;;;;;;;;;25.11;53.61;100264.85;2312077;75;52662;-76
2023/07/30 08:59:03;;;;;;;;;;;;;;;25.07;53.71;100251.48;2322630;76;50617;-75
2023/07/30 09:02:05;;;;;;;;;;;;;;;25.04;53.81;100263.60;2313590;77;51442;-75
2023/07/30 09:05:07;;;;;;;;;;;;;;;25.04;53.83;100261.44;2313519;77;50646;-75
2023/07/30 09:08:08;;;;;;;;;;;;;;;25.01;53.85;100255.95;2313342;75;50222;-75
2023/07/30 09:11:10;;;;;;;;;;;;;;;25.01;53.84;100261.91;2313562;77;50352;-76
2023/07/30 09:14:12;;;;;;;;;;;;;;;24.98;53.88;100259.96;2313494;77;50948;-76
2023/07/30 09:17:19;;;;;;;;;;;;;;;24.98;53.90;100262.67;2313396;75;51905;-76
2023/07/30 09:20:21;;;;;;;;;;;;;;;24.97;53.91;100265.09;2306453;77;51733;-75
2023/07/30 09:23:22;;;;;;;;;;;;;;;24.99;53.85;100273.78;2295780;77;51444;-75
2023/07/30 09:26:24;;;;;;;;;;;;;;;24.98;53.82;100266.73;2303458;75;50602;-75
2023/07/30 09:29:26;;;;;;;;;;;;;;;24.99;53.80;100269.72;2270177;77;51433;-75
2023/07/30 09:32:28;;;;;;;;;;;;;;;25.04;53.80;100284.44;2306009;77;51417;-75
2023/07/30 09:35:29;;;;;;;;;;;;;;;25.04;53.81;100270.91;2279619;76;51411;-74
2023/07/30 09:38:32;;;;;;;;;;;;;;;25.02;53.86;100277.08;2288597;77;51448;-75
2023/07/30 09:41:34;;;;;;;;;;;;;;;25.03;53.84;100270.09;2307753;76;49839;-75
2023/07/30 09:44:38;;;;;;;;;;;;;;;25.03;53.82;100283.63;2276232;77;51715;-76
2023/07/30 09:47:40;;;;;;;;;;;;;;;25.04;53.83;100288.50;2298571;76;50424;-76
2023/07/30 09:50:41;;;;;;;;;;;;;;;25.02;53.88;100278.43;2272574;77;50644;-77
2023/07/30 09:53:43;;;;;;;;;;;;;;;25.03;53.85;100281.45;2293093;77;51466;-76
2023/07/30 09:56:44;;;;;;;;;;;;;;;25.05;53.81;100288.78;2267392;77;52937;-76
2023/07/30 09:59:46;;;;;;;;;;;;;;;25.04;53.79;100293.38;2313542;76;51369;-76
2023/07/30 10:02:48;;;;;;;;;;;;;;;25.04;54.06;100292.03;2338919;76;51496;-76
2023/07/30 10:05:50;;;;;;;;;;;;;;;25.04;54.48;100292.56;2303662;76;52495;-75
2023/07/30 10:08:51;;;;;;;;;;;;;;;25.04;54.49;100296.09;2297584;77;52343;-77
2023/07/30 10:11:53;;;;;;;;;;;;;;;25.06;54.71;100299.92;2303523;77;51505;-75
2023/07/30 10:14:55;;;;;;;;;;;;;;;25.10;54.60;100291.61;2303476;76;50381;-75
2023/07/30 10:17:57;;;;;;;;;;;;;;;25.10;54.69;100298.37;2302614;76;51541;-74
2023/07/30 10:20:59;;;;;;;;;;;;;;;25.12;54.58;100288.14;2336901;75;51217;-73
2023/07/30 10:24:01;;;;;;;;;;;;;;;25.13;54.52;100300.64;2303508;76;50647;-73
2023/07/30 10:27:04;;;;;;;;;;;;;;;25.16;54.50;100293.42;2303089;76;51602;-73
2023/07/30 10:30:15;;;;;;;;;;;;;;;25.18;54.64;100289.96;2322912;75;51439;-75
2023/07/30 10:33:17;;;;;;;;;;;;;;;25.20;54.60;100281.90;2298353;76;52414;-74
2023/07/30 10:36:19;;;;;;;;;;;;;;;25.22;54.61;100286.23;2323406;76;51412;-74
2023/07/30 10:39:25;;;;;;;;;;;;;;;25.23;54.64;100284.66;2323650;76;49986;-73
2023/07/30 10:42:24;;;;;;;;;;;;;;;25.25;54.60;100297.95;2294349;76;22413;-76
2023/07/30 10:45:26;;;;;;;;;;;;;;;25.26;54.58;100288.78;2294287;76;51646;-74
2023/07/30 10:48:32;;;;;;;;;;;;;;;25.27;54.52;100290.41;2294647;76;51446;-74
2023/07/30 10:51:34;;;;;;;;;;;;;;;25.28;54.45;100287.98;2323784;76;51546;-73
2023/07/30 10:54:36;;;;;;;;;;;;;;;25.30;54.44;100292.64;2294937;76;51470;-75
2023/07/30 10:57:39;;;;;;;;;;;;;;;25.29;54.43;100286.41;2294196;76;50146;-76
2023/07/30 11:00:41;;;;;;;;;;;;;;;25.30;54.49;100294.81;2322057;75;50345;-76
2023/07/30 11:03:42;;;;;;;;;;;;;;;25.29;54.32;100297.25;2321334;76;51491;-76
2023/07/30 11:06:47;;;;;;;;;;;;;;;25.29;54.50;100302.66;2321013;76;50290;-75
2023/07/30 11:09:51;;;;;;;;;;;;;;;25.29;54.41;100291.02;2309113;76;49796;-77
2023/07/30 11:12:52;;;;;;;;;;;;;;;25.27;54.45;100299.36;2320563;76;50408;-75
2023/07/30 11:15:54;;;;;;;;;;;;;;;25.29;54.39;100300.49;2321663;75;50612;-77
2023/07/30 11:18:56;;;;;;;;;;;;;;;25.26;54.46;100290.95;2321761;76;50212;-77
2023/07/30 11:21:57;;;;;;;;;;;;;;;25.26;54.35;100280.66;2321836;76;51491;-76
2023/07/30 11:25:01;;;;;;;;;;;;;;;25.27;54.26;100281.76;2321935;76;50386;-76
2023/07/30 11:28:03;;;;;;;;;;;;;;;25.25;54.27;100278.45;2307337;76;51578;-78
2023/07/30 11:31:09;;;;;;;;;;;;;;;25.27;54.18;100272.81;2307686;76;50698;-79
2023/07/30 11:34:10;;;;;;;;;;;;;;;25.24;54.20;100279.53;2300595;77;50464;-77
2023/07/30 11:37:12;;;;;;;;;;;;;;;25.24;54.16;100282.23;2300470;77;50263;-79
2023/07/30 11:40:14;;;;;;;;;;;;;;;25.24;54.15;100270.05;2300775;76;49880;-77
2023/07/30 11:43:15;;;;;;;;;;;;;;;25.27;52.71;100272.28;2300607;77;50627;-76
2023/07/30 11:46:18;;;;;;;;;;;;;;;25.22;49.48;100271.34;2253554;76;52532;-76
2023/07/30 11:49:21;;;;;;;;;;;;;;;25.20;47.07;100269.71;2300756;77;50825;-78
2023/07/30 11:52:23;;;;;;;;;;;;;;;25.15;45.46;100270.92;2279742;76;51580;-77
2023/07/30 11:55:24;;;;;;;;;;;;;;;25.08;44.92;100266.69;2301044;76;51412;-78
2023/07/30 11:58:28;;;;;;;;;;;;;;;24.97;45.53;100268.30;2258666;76;51204;-76
2023/07/30 12:01:30;;;;;;;;;;;;;;;25.04;46.60;100277.67;2321346;76;50277;-78
2023/07/30 12:04:32;;;;;;;;;;;;;;;25.03;46.84;100273.33;2319826;76;51450;-78
2023/07/30 12:07:33;;;;;;;;;;;;;;;25.10;47.22;100265.89;2319859;75;51493;-77
2023/07/30 12:10:40;;;;;;;;;;;;;;;25.08;47.51;100261.27;2270324;76;49949;-77
2023/07/30 12:13:50;;;;;;;;;;;;;;;25.08;47.72;100268.03;2310919;76;50669;-76
2023/07/30 12:16:47;;;;;;;;;;;;;;;25.10;47.82;100263.19;2318008;75;22413;-76
2023/07/30 12:19:49;;;;;;;;;;;;;;;25.08;48.16;100270.20;2319786;76;51546;-75
2023/07/30 12:22:51;;;;;;;;;;;;;;;25.12;48.47;100262.42;2295482;76;53444;-75
2023/07/30 12:25:53;;;;;;;;;;;;;;;25.12;48.57;100261.07;2269788;75;52283;-77
2023/07/30 12:28:54;;;;;;;;;;;;;;;25.18;48.78;100262.88;2282276;76;51680;-75
2023/07/30 12:31:56;;;;;;;;;;;;;;;25.13;49.06;100263.55;2300858;76;51448;-78
2023/07/30 12:34:57;;;;;;;;;;;;;;;25.15;49.33;100264.15;2321500;76;51440;-75
2023/07/30 12:37:59;;;;;;;;;;;;;;;25.17;48.89;100268.80;2308966;76;51165;-75
2023/07/30 12:41:01;;;;;;;;;;;;;;;25.19;48.67;100274.81;2302647;76;51459;-74
2023/07/30 12:44:04;;;;;;;;;;;;;;;25.19;48.59;100272.64;2254267;78;51345;-75
2023/07/30 12:47:06;;;;;;;;;;;;;;;25.18;48.76;100265.59;2254274;77;50518;-75
2023/07/30 12:50:07;;;;;;;;;;;;;;;25.18;48.73;100265.06;2254058;78;52334;-74
2023/07/30 12:53:09;;;;;;;;;;;;;;;25.17;48.54;100266.63;2277653;77;51431;-73
2023/07/30 12:56:12;;;;;;;;;;;;;;;25.19;48.50;100250.98;2277513;77;50716;-74
2023/07/30 12:59:13;;;;;;;;;;;;;;;25.15;48.57;100256.03;2277434;78;50323;-74
2023/07/30 13:02:15;;;;;;;;;;;;;;;25.15;48.66;100256.03;2275467;76;52450;-74
2023/07/30 13:05:17;;;;;;;;;;;;;;;25.13;48.41;100258.67;2309093;75;51427;-74
2023/07/30 13:08:19;;;;;;;;;;;;;;;25.11;48.42;100260.79;2309031;76;50753;-74
2023/07/30 13:11:20;;;;;;;;;;;;;;;25.07;48.57;100259.60;2309290;76;51462;-74
2023/07/30 13:14:22;;;;;;;;;;;;;;;25.13;48.07;100254.62;2286075;77;50969;-74
2023/07/30 13:17:23;;;;;;;;;;;;;;;25.10;47.99;100251.00;2269008;76;51449;-75
2023/07/30 13:20:25;;;;;;;;;;;;;;;25.09;47.99;100246.66;2269089;78;51966;-73
2023/07/30 13:23:28;;;;;;;;;;;;;;;25.09;47.72;100242.06;2269093;78;51378;-74
2023/07/30 13:26:30;;;;;;;;;;;;;;;25.07;47.41;100240.65;2308008;76;51229;-74
2023/07/30 13:29:31;;;;;;;;;;;;;;;25.07;47.35;100229.82;2348520;74;50190;-74
2023/07/30 13:32:33;;;;;;;;;;;;;;;25.08;47.01;100226.08;2305833;76;50600;-74
2023/07/30 13:35:35;;;;;;;;;;;;;;;25.13;47.07;100220.77;2319865;75;50242;-75
2023/07/30 13:38:38;;;;;;;;;;;;;;;25.10;46.97;100217.16;2308354;76;51716;-75
2023/07/30 13:41:40;;;;;;;;;;;;;;;25.06;46.96;100222.77;2295737;76;50751;-74
2023/07/30 13:44:42;;;;;;;;;;;;;;;25.07;46.87;100221.16;2297937;75;50711;-75
2023/07/30 13:47:43;;;;;;;;;;;;;;;25.07;47.00;100214.94;2302025;76;51538;-76
2023/07/30 13:50:45;;;;;;;;;;;;;;;25.11;46.53;100226.95;2270096;76;51640;-75
2023/07/30 13:53:47;;;;;;;;;;;;;;;25.03;46.39;100225.42;2319929;76;51444;-75
2023/07/30 13:56:48;;;;;;;;;;;;;;;24.99;46.31;100238.59;2295514;76;50606;-75
2023/07/30 13:59:50;;;;;;;;;;;;;;;25.03;46.58;100248.97;2319725;76;50724;-74
2023/07/30 14:02:52;;;;;;;;;;;;;;;25.04;46.09;100253.31;2310312;76;52185;-75
2023/07/30 14:05:54;;;;;;;;;;;;;;;25.01;46.15;100246.48;2320271;75;50680;-75
2023/07/30 14:08:55;;;;;;;;;;;;;;;25.03;45.73;100247.62;2339319;76;51395;-77
2023/07/30 14:11:57;;;;;;;;;;;;;;;25.02;45.66;100236.47;2329059;76;51472;-75
2023/07/30 14:14:58;;;;;;;;;;;;;;;24.99;45.66;100235.88;2299874;76;52566;-74
2023/07/30 14:18:00;;;;;;;;;;;;;;;24.98;45.42;100236.95;2341076;76;51430;-76
2023/07/30 14:21:02;;;;;;;;;;;;;;;24.96;46.18;100240.42;2341389;76;50210;-75
2023/07/30 14:24:04;;;;;;;;;;;;;;;24.94;45.89;100237.66;2340576;76;51378;-76
2023/07/30 14:27:06;;;;;;;;;;;;;;;24.94;45.78;100238.47;2250788;77;51652;-76
2023/07/30 14:30:08;;;;;;;;;;;;;;;24.94;46.09;100247.13;2303005;76;51489;-75
2023/07/30 14:33:10;;;;;;;;;;;;;;;24.92;45.91;100259.56;2311890;76;51777;-76
2023/07/30 14:36:12;;;;;;;;;;;;;;;24.91;46.06;100279.55;2307720;76;51423;-75
2023/07/30 14:39:14;;;;;;;;;;;;;;;24.90;46.37;100287.38;2330273;76;52401;-76
2023/07/30 14:42:15;;;;;;;;;;;;;;;24.93;46.39;100310.45;2298912;74;50661;-75
2023/07/30 14:45:17;;;;;;;;;;;;;;;24.93;46.38;100318.03;2310750;76;51416;-75
2023/07/30 14:48:18;;;;;;;;;;;;;;;24.93;46.63;100315.86;2334745;76;51415;-76
2023/07/30 14:51:20;;;;;;;;;;;;;;;24.92;46.72;100310.13;2278541;76;51673;-76
2023/07/30 14:54:22;;;;;;;;;;;;;;;24.91;46.69;100322.84;2276186;77;50452;-76
2023/07/30 14:57:23;;;;;;;;;;;;;;;24.88;46.97;100327.38;2319249;76;51409;-76
2023/07/30 15:00:26;;;;;;;;;;;;;;;24.89;47.05;100333.11;2330833;76;51443;-75
2023/07/30 15:03:28;;;;;;;;;;;;;;;24.90;47.06;100332.58;2260881;77;51704;-76
2023/07/30 15:06:29;;;;;;;;;;;;;;;24.90;47.21;100333.92;2294433;76;50243;-75
2023/07/30 15:09:34;;;;;;;;;;;;;;;24.91;47.27;100324.20;2314326;76;52292;-74
2023/07/30 15:12:34;;;;;;;;;;;;;;;24.89;47.32;100293.86;2289095;76;22332;-75
2023/07/30 15:15:36;;;;;;;;;;;;;;;24.90;47.39;100312.27;2279898;75;50632;-75
2023/07/30 15:18:37;;;;;;;;;;;;;;;24.89;47.41;100314.16;2331010;76;51460;-74
2023/07/30 15:21:39;;;;;;;;;;;;;;;24.90;47.43;100317.69;2331996;76;51454;-75
2023/07/30 15:24:41;;;;;;;;;;;;;;;24.90;47.49;100302.27;2333077;76;51382;-75
2023/07/30 15:27:42;;;;;;;;;;;;;;;24.90;47.47;100302.27;2298715;76;52549;-76
2023/07/30 15:30:44;;;;;;;;;;;;;;;24.92;47.74;100287.98;2299059;75;51453;-76
2023/07/30 15:33:45;;;;;;;;;;;;;;;24.91;47.87;100290.38;2333174;76;51494;-77